Hlavní strana
METAR-TAF:

METAR-TAF

Letiště :

Kuopio, Finsko

zeměpisná šířka: 63-01N, zeměpisná délka: 027-48E, výška: 98 m

Aktuální stav počasí

Zpráva byla vytvořena před 41 minutami, v 18:50 UTC
Jižní vítr 8 kt
Teplota 4°C
Vlhkost vzduchu 70%
Tlak 1016 hPa
Viditelnost 10 km a více
Žádná oblačnost pod 1500 m, nevyskytují se cumulonimby.

METAR: EFKU 131850Z AUTO 18008KT CAVOK 04/M01 Q1016

Čas: 22:31 (19:31 UTC)

Předpověď počasí

Zpráva byla vytvořena před 2 hodinami a 9 minutami, v 17:22 UTC
Předpověď platná od 13 v 18 UTC do 14 v 18 UTC
Západojihozápadní vítr 9 kt
Viditelnost 10 km a více
Žádná oblačnost pod 1500 m, nevyskytují se cumulonimby.
Dočasný
od 14 v 06 UTC do 14 v 09 UTC
Oblačno až skoro zataženo ve výšce 800 ft

TAF: EFKU 131722Z 1318/1418 24009KT CAVOK TEMPO 1406/1409 BKN008

Stav a předpovědi počasí z více než 4 000 letišť (zprávy METAR a TAF).

Červené a žluté tečky na mapě představují dostupné meteorologické stanice.

Když kurzor umístíte na tečku, zobrazí se název stanice.

Pak kliknutím zobrazíte stav a předpověď počasí.

Chcete-li změnit mapu, kliknutím na zelené tlačítko se znaménkem +mapu přiblížíte, kliknutím na zelené tlačítko se znaménkem – mapu oddálíte a kliknutím na zelené šipky přejdete na sousední mapy.


METAR-TAF: